James E. Brown — WDH9622 — position and weather

sailwx.info

Track history (hours):
 
Tides and Currents Weather Stations Pressure Air Temp Water Temp Dewpoint Dewpoint Depression Visibility Wind Speed Wind Dir Waves Ship Positions

James E. Brown

Owner: Thomas J. Brown and Sons, Inc., Statten Island, NY. More information available from US FCC via Universal Licensing System and Coast Guard Vessel Documentation Center.

Last reported at 2018-Feb-20 21:05 UTC. Time now 2018-Feb-21 03:44 UTC.
Position N 40°42' W 074°09'.

Length 19 m; draft 4 m.

Type: Tug. MMSI: 367669920.

Date/timePositionNaut miles runAvg speedWind from/ knotsBaromVisibWave heightAir tempDewpointWater temp
2018-Feb-20 21:05N 40°42' W 074°09'0 0.0
2018-Feb-20 21:00N 40°42' W 074°09'1 1.6
2018-Feb-20 20:30N 40°41' W 074°08'1 1.5
2018-Feb-20 20:00N 40°42' W 074°09'1 1.4
2018-Feb-20 19:30N 40°41' W 074°08'3 5.1
2018-Feb-20 19:00N 40°39' W 074°09'4 9.0
2018-Feb-20 18:30N 40°40' W 074°03'4 8.8
2018-Feb-20 18:00N 40°42' W 073°58'0 0.1
2018-Feb-20 17:30N 40°42' W 073°58'0 0.3
2018-Feb-20 17:00N 40°42' W 073°58'0 0.0
2018-Feb-20 16:30N 40°42' W 073°58'0 0.3
2018-Feb-20 16:00N 40°42' W 073°58'0 0.1
2018-Feb-20 15:30N 40°42' W 073°58'0 0.2
2018-Feb-20 15:00N 40°42' W 073°58'0 0.1
2018-Feb-20 14:30N 40°42' W 073°58'2 4.6
2018-Feb-20 14:00N 40°41' W 074°01'4 7.7
2018-Feb-20 13:30N 40°39' W 074°05'3 6.3
2018-Feb-20 13:00N 40°38' W 074°09'0 0.4
2018-Feb-20 12:30N 40°38' W 074°10'0 0.0
2018-Feb-20 12:00N 40°38' W 074°10'0 0.0
2018-Feb-20 11:30N 40°38' W 074°10'0 0.0
2018-Feb-20 10:59N 40°38' W 074°10'0 0.0
2018-Feb-20 10:28N 40°38' W 074°10'0 0.0
2018-Feb-20 09:59N 40°38' W 074°10'0 0.0
2018-Feb-20 09:30N 40°38' W 074°10'0 0.0
2018-Feb-20 09:00N 40°38' W 074°10'0 0.0
2018-Feb-20 08:30N 40°38' W 074°10'0 0.0
2018-Feb-20 07:57N 40°38' W 074°10'0 0.0
2018-Feb-20 07:30N 40°38' W 074°10'0 0.0
2018-Feb-20 07:00N 40°38' W 074°10'0 0.0
2018-Feb-20 06:29N 40°38' W 074°10'0 0.0
2018-Feb-20 06:00N 40°38' W 074°10'0 0.0
2018-Feb-20 05:30N 40°38' W 074°10'0 0.0
2018-Feb-20 05:00N 40°38' W 074°10'0 0.0
2018-Feb-20 04:30N 40°38' W 074°10'0 0.0
2018-Feb-20 04:00N 40°38' W 074°10'0 0.0
2018-Feb-20 03:29N 40°38' W 074°10'0 0.0
2018-Feb-20 03:00N 40°38' W 074°10'0 0.0
2018-Feb-20 02:30N 40°38' W 074°10'0 0.0
2018-Feb-20 02:00N 40°38' W 074°10'0 0.0
2018-Feb-20 01:29N 40°38' W 074°10'0 0.0
2018-Feb-20 01:00N 40°38' W 074°10'0 0.0
2018-Feb-20 00:29N 40°38' W 074°10'0 0.0
2018-Feb-20 00:00N 40°38' W 074°10'0 0.0
2018-Feb-19 23:29N 40°38' W 074°10'0 0.0
2018-Feb-19 23:00N 40°38' W 074°10'0 0.0
2018-Feb-19 22:30N 40°38' W 074°10'0 0.0
2018-Feb-19 22:00N 40°38' W 074°10'0 0.0
2018-Feb-19 21:30N 40°38' W 074°10'0 0.0
2018-Feb-19 21:00N 40°38' W 074°10'0 0.0
2018-Feb-19 20:30N 40°38' W 074°10'0 0.0
2018-Feb-19 20:00N 40°38' W 074°10'0 0.0
2018-Feb-19 19:30N 40°38' W 074°10'0 0.0
2018-Feb-19 19:00N 40°38' W 074°10'0 0.0
2018-Feb-19 18:30N 40°38' W 074°10'0 0.0
2018-Feb-19 18:00N 40°38' W 074°10'0 0.0
2018-Feb-19 17:29N 40°38' W 074°10'0 0.0
2018-Feb-19 17:00N 40°38' W 074°10'0 0.0
2018-Feb-19 16:30N 40°38' W 074°10'0 0.0
2018-Feb-19 16:00N 40°38' W 074°10'0 0.0
2018-Feb-19 15:30N 40°38' W 074°10'0 0.0
2018-Feb-19 15:00N 40°38' W 074°10'0 0.0
2018-Feb-19 14:30N 40°38' W 074°10'0 0.0
2018-Feb-19 14:00N 40°38' W 074°10'0 0.0
2018-Feb-19 13:30N 40°38' W 074°10'0 0.0
2018-Feb-19 13:00N 40°38' W 074°10'0 0.0
2018-Feb-19 12:30N 40°38' W 074°10'0 0.0
2018-Feb-19 12:00N 40°38' W 074°10'0 0.0
2018-Feb-19 11:30N 40°38' W 074°10'0 0.0
2018-Feb-19 11:00N 40°38' W 074°10'0 0.0
2018-Feb-19 10:30N 40°38' W 074°10'0 0.0
2018-Feb-19 10:00N 40°38' W 074°10'0 0.0
2018-Feb-19 09:30N 40°38' W 074°10'0 0.0
2018-Feb-19 09:00N 40°38' W 074°10'0 0.0
2018-Feb-19 08:30N 40°38' W 074°10'0 0.0
2018-Feb-19 08:00N 40°38' W 074°10'0 0.0
2018-Feb-19 07:30N 40°38' W 074°10'0 0.0
2018-Feb-19 06:59N 40°38' W 074°10'0 0.0
2018-Feb-19 06:29N 40°38' W 074°10'0 0.0
2018-Feb-19 06:00N 40°38' W 074°10'0 0.0
2018-Feb-19 05:30N 40°38' W 074°10'0 0.0
2018-Feb-19 04:59N 40°38' W 074°10'0 0.0
2018-Feb-19 04:30N 40°38' W 074°10'0 0.0
2018-Feb-19 04:00N 40°38' W 074°10'0 0.0
2018-Feb-19 03:30N 40°38' W 074°10'0 0.0
2018-Feb-19 03:00N 40°38' W 074°10'0 0.0
2018-Feb-19 02:30N 40°38' W 074°10'0 0.0
2018-Feb-19 02:00N 40°38' W 074°10'0 0.0
2018-Feb-19 01:29N 40°38' W 074°10'0 0.0
2018-Feb-19 01:00N 40°38' W 074°10'0 0.0
2018-Feb-19 00:30N 40°38' W 074°10'0 0.0
2018-Feb-19 00:00N 40°38' W 074°10'0 0.0
2018-Feb-18 23:30N 40°38' W 074°10'0 0.0
2018-Feb-18 23:00N 40°38' W 074°10'0 0.0
2018-Feb-18 22:30N 40°38' W 074°10'0 0.0
2018-Feb-18 22:00N 40°38' W 074°10'0 0.0
2018-Feb-18 21:30N 40°38' W 074°10'0 0.0
2018-Feb-18 21:00N 40°38' W 074°10'0 0.0
2018-Feb-18 20:30N 40°38' W 074°10'0 0.0
2018-Feb-18 19:59N 40°38' W 074°10'0 0.0
2018-Feb-18 19:30N 40°38' W 074°10'0 0.0
2018-Feb-18 19:00N 40°38' W 074°10'0 0.0
2018-Feb-18 18:29N 40°38' W 074°10'0 0.0
2018-Feb-18 18:00N 40°38' W 074°10'0 0.0
2018-Feb-18 17:30N 40°38' W 074°10'0 0.0
2018-Feb-18 17:00N 40°38' W 074°10'0 0.0
2018-Feb-18 16:30N 40°38' W 074°10'0 0.0
2018-Feb-18 16:00N 40°38' W 074°10'0 0.0
2018-Feb-18 15:30N 40°38' W 074°10'0 0.0
2018-Feb-18 15:00N 40°38' W 074°10'0 0.0
2018-Feb-18 14:30N 40°38' W 074°10'0 0.0
2018-Feb-18 13:59N 40°38' W 074°10'0 0.0
2018-Feb-18 13:30N 40°38' W 074°10'0 0.0
2018-Feb-18 13:00N 40°38' W 074°10'0 0.0
2018-Feb-18 12:30N 40°38' W 074°10'0 0.0
2018-Feb-18 12:00N 40°38' W 074°10'0 0.0
2018-Feb-18 11:30N 40°38' W 074°10'0 0.0
2018-Feb-18 11:00N 40°38' W 074°10'0 0.0
2018-Feb-18 10:29N 40°38' W 074°10'0 0.0
2018-Feb-18 10:00N 40°38' W 074°10'0 0.0
2018-Feb-18 09:30N 40°38' W 074°10'0 0.0
2018-Feb-18 09:00N 40°38' W 074°10'0 0.0
2018-Feb-18 08:30N 40°38' W 074°10'0 0.0
2018-Feb-18 08:00N 40°38' W 074°10'0 0.0
2018-Feb-18 07:30N 40°38' W 074°10'0 0.0
2018-Feb-18 07:00N 40°38' W 074°10'0 0.0
2018-Feb-18 06:30N 40°38' W 074°10'0 0.0
2018-Feb-18 06:00N 40°38' W 074°10'0 0.0
2018-Feb-18 05:30N 40°38' W 074°10'0 0.0
2018-Feb-18 05:00N 40°38' W 074°10'0 0.0
2018-Feb-18 04:30N 40°38' W 074°10'0 0.0
2018-Feb-18 04:00N 40°38' W 074°10'0 0.0
2018-Feb-18 03:30N 40°38' W 074°10'0 0.0
2018-Feb-18 02:59N 40°38' W 074°10'0 0.0
2018-Feb-18 02:30N 40°38' W 074°10'0 0.0
2018-Feb-18 02:00N 40°38' W 074°10'0 0.0
2018-Feb-18 01:30N 40°38' W 074°10'0 0.0
2018-Feb-18 01:00N 40°38' W 074°10'0 0.0
2018-Feb-18 00:30N 40°38' W 074°10'0 0.0
2018-Feb-18 00:00N 40°38' W 074°10'0 0.0
2018-Feb-17 23:29N 40°38' W 074°10'0 0.0
2018-Feb-17 23:00N 40°38' W 074°10'0 0.0
2018-Feb-17 22:30N 40°38' W 074°10'0 0.0
2018-Feb-17 22:00N 40°38' W 074°10'0 0.0
2018-Feb-17 21:30N 40°38' W 074°10'0 0.0
2018-Feb-17 21:00N 40°38' W 074°10'0 0.0
2018-Feb-17 20:30N 40°38' W 074°10'0 0.0
2018-Feb-17 20:00N 40°38' W 074°10'0 0.0
2018-Feb-17 19:30N 40°38' W 074°10'0 0.0
2018-Feb-17 19:00N 40°38' W 074°10'0 0.0
2018-Feb-17 18:30N 40°38' W 074°10'0 0.0
2018-Feb-17 18:00N 40°38' W 074°10'0 0.0
2018-Feb-17 17:30N 40°38' W 074°10'0 0.0
2018-Feb-17 17:00N 40°38' W 074°10'0 0.0
2018-Feb-17 16:30N 40°38' W 074°10'0 0.0
2018-Feb-17 16:00N 40°38' W 074°10'0 0.0
2018-Feb-17 15:30N 40°38' W 074°10'0 0.0
2018-Feb-17 15:00N 40°38' W 074°10'0 0.0
2018-Feb-17 14:30N 40°38' W 074°10'0 0.0
2018-Feb-17 14:00N 40°38' W 074°10'0 0.0
2018-Feb-17 13:30N 40°38' W 074°10'0 0.0
2018-Feb-17 13:00N 40°38' W 074°10'0 0.0
2018-Feb-17 12:30N 40°38' W 074°10'0 0.0
2018-Feb-17 12:00N 40°38' W 074°10'0 0.0
2018-Feb-17 11:30N 40°38' W 074°10'0 0.0
2018-Feb-17 11:00N 40°38' W 074°10'0 0.0
2018-Feb-17 10:30N 40°38' W 074°10'0 0.0
2018-Feb-17 10:00N 40°38' W 074°10'0 0.0
2018-Feb-17 09:30N 40°38' W 074°10'0 0.0
2018-Feb-17 09:00N 40°38' W 074°10'0 0.0
2018-Feb-17 08:30N 40°38' W 074°10'0 0.0
2018-Feb-17 08:00N 40°38' W 074°10'0 0.0
2018-Feb-17 07:30N 40°38' W 074°10'0 0.0
2018-Feb-17 06:59N 40°38' W 074°10'0 0.0
2018-Feb-17 06:30N 40°38' W 074°10'0 0.0
2018-Feb-17 06:00N 40°38' W 074°10'0 0.0
2018-Feb-17 05:30N 40°38' W 074°10'0 0.0
2018-Feb-17 05:00N 40°38' W 074°10'0 0.0
2018-Feb-17 04:30N 40°38' W 074°10'0 0.0
2018-Feb-17 03:59N 40°38' W 074°10'0 0.0
2018-Feb-17 03:30N 40°38' W 074°10'0 0.0
2018-Feb-17 03:00N 40°38' W 074°10'0 0.0
2018-Feb-17 02:30N 40°38' W 074°10'0 0.0
2018-Feb-17 02:00N 40°38' W 074°10'0 0.0
2018-Feb-17 01:30N 40°38' W 074°10'0 0.0
2018-Feb-17 01:00N 40°38' W 074°10'0 0.0
2018-Feb-17 00:30N 40°38' W 074°10'0 0.0
2018-Feb-17 00:00N 40°38' W 074°10'0 0.0
2018-Feb-16 23:30N 40°38' W 074°10'0 0.0
2018-Feb-16 22:58N 40°38' W 074°10'0 0.0
2018-Feb-16 21:59N 40°38' W 074°10'0 0.0
2018-Feb-16 21:30N 40°38' W 074°10'0 0.0
2018-Feb-16 20:59N 40°38' W 074°10'0 0.0
2018-Feb-16 20:30N 40°38' W 074°10'0 0.0
2018-Feb-16 20:00N 40°38' W 074°10'0 0.0
2018-Feb-16 19:29N 40°38' W 074°10'0 0.0
2018-Feb-16 19:00N 40°38' W 074°10'2 2.0
2018-Feb-16 17:49N 40°39' W 074°07'0 0.0
2018-Feb-16 17:28N 40°39' W 074°07'0 0.0
2018-Feb-16 17:00N 40°39' W 074°07'0 0.0
2018-Feb-16 16:23N 40°39' W 074°07'2 4.6
2018-Feb-16 16:00N 40°38' W 074°09'1 1.6
2018-Feb-16 15:30N 40°39' W 074°08'1 1.8
2018-Feb-16 15:00N 40°39' W 074°07'1 1.4
2018-Feb-16 14:30N 40°39' W 074°07'1 2.9
2018-Feb-16 14:00N 40°40' W 074°09'1 2.2
2018-Feb-16 13:30N 40°38' W 074°09'1 0.0
2018-Feb-14 16:43N 40°40' W 074°09'0 0.0
2018-Feb-14 16:30N 40°40' W 074°09'0 0.0
2018-Feb-14 16:01N 40°40' W 074°09'0 0.1
2018-Feb-14 15:30N 40°40' W 074°09'0 0.7
2018-Feb-14 15:00N 40°40' W 074°09'2 4.7
2018-Feb-14 14:31N 40°39' W 074°06'3 6.3
2018-Feb-14 14:01N 40°41' W 074°03'4 7.4
2018-Feb-14 13:30N 40°43' W 073°59'1 2.8
2018-Feb-14 13:00N 40°44' W 073°58'0 0.2
2018-Feb-14 12:30N 40°44' W 073°58'0 0.1
2018-Feb-14 12:01N 40°44' W 073°58'2 3.0
2018-Feb-14 11:30N 40°42' W 073°59'3 5.7
2018-Feb-14 11:00N 40°41' W 074°02'4 7.4
2018-Feb-14 10:30N 40°39' W 074°06'3 6.4
2018-Feb-14 10:00N 40°39' W 074°10'1 2.1
2018-Feb-14 09:30N 40°39' W 074°11'2 0.1
2018-Feb-13 18:54N 40°39' W 074°09'1 2.2
2018-Feb-13 18:30N 40°40' W 074°09'1 2.6
2018-Feb-13 18:00N 40°39' W 074°09'2 4.6
2018-Feb-13 17:30N 40°39' W 074°06'2 4.1
2018-Feb-13 17:00N 40°41' W 074°04'0 0.3
2018-Feb-13 16:30N 40°41' W 074°04'0 0.2
2018-Feb-13 16:00N 40°41' W 074°04'2 4.9
2018-Feb-13 15:30N 40°40' W 074°01'0 0.1
2018-Feb-13 15:00N 40°40' W 074°01'2 3.8
2018-Feb-13 14:30N 40°42' W 074°00'0 0.1
2018-Feb-13 14:00N 40°42' W 074°00'0 0.6
2018-Feb-13 13:30N 40°42' W 074°00'2 4.5
2018-Feb-13 13:00N 40°44' W 073°58'1 1.3
2018-Feb-13 12:30N 40°44' W 073°58'4 7.0
2018-Feb-13 12:00N 40°41' W 074°01'3 0.2
2018-Feb-12 20:48N 40°43' W 073°58'0 0.4
2018-Feb-12 20:30N 40°43' W 073°58'4 7.7
2018-Feb-12 20:00N 40°41' W 074°02'2 3.3
2018-Feb-12 19:30N 40°41' W 074°04'0 0.6
2018-Feb-12 19:00N 40°40' W 074°04'2 4.2
2018-Feb-12 18:30N 40°39' W 074°02'0 0.5
2018-Feb-12 18:00N 40°39' W 074°02'0 0.0
2018-Feb-12 17:30N 40°39' W 074°02'2 3.7
2018-Feb-12 17:00N 40°40' W 074°03'1 1.8
2018-Feb-12 16:30N 40°41' W 074°04'0 0.3
2018-Feb-12 16:00N 40°41' W 074°04'2 4.1
2018-Feb-12 15:30N 40°39' W 074°02'1 1.1
2018-Feb-12 15:00N 40°39' W 074°02'0 0.0
2018-Feb-12 14:30N 40°39' W 074°02'1 2.4
2018-Feb-12 14:00N 40°40' W 074°03'2 3.2
2018-Feb-12 13:30N 40°41' W 074°04'0 0.0
2018-Feb-12 13:00N 40°41' W 074°04'0 0.0
2018-Feb-12 12:30N 40°41' W 074°04'  
Track history (hours):
 
Tides and Currents Weather Stations Pressure Air Temp Water Temp Dewpoint Dewpoint Depression Visibility Wind Speed Wind Dir Waves Ship Positions

James E. Brown

Owner: Thomas J. Brown and Sons, Inc., Statten Island, NY. More information available from US FCC via Universal Licensing System and Coast Guard Vessel Documentation Center.

Last reported at 2018-Feb-20 21:05 UTC. Time now 2018-Feb-21 03:44 UTC.
Position N 40°42' W 074°09'.

Length 19 m; draft 4 m.

Type: Tug. MMSI: 367669920.

Date/timePositionNaut miles runAvg speedWind from/ knotsBaromVisibWave heightAir tempDewpointWater temp
2018-Feb-20 21:05N 40°42' W 074°09'0 0.0
2018-Feb-20 21:00N 40°42' W 074°09'1 1.6
2018-Feb-20 20:30N 40°41' W 074°08'1 1.5
2018-Feb-20 20:00N 40°42' W 074°09'1 1.4
2018-Feb-20 19:30N 40°41' W 074°08'3 5.1
2018-Feb-20 19:00N 40°39' W 074°09'4 9.0
2018-Feb-20 18:30N 40°40' W 074°03'4 8.8
2018-Feb-20 18:00N 40°42' W 073°58'0 0.1
2018-Feb-20 17:30N 40°42' W 073°58'0 0.3
2018-Feb-20 17:00N 40°42' W 073°58'0 0.0
2018-Feb-20 16:30N 40°42' W 073°58'0 0.3
2018-Feb-20 16:00N 40°42' W 073°58'0 0.1
2018-Feb-20 15:30N 40°42' W 073°58'0 0.2
2018-Feb-20 15:00N 40°42' W 073°58'0 0.1
2018-Feb-20 14:30N 40°42' W 073°58'2 4.6
2018-Feb-20 14:00N 40°41' W 074°01'4 7.7
2018-Feb-20 13:30N 40°39' W 074°05'3 6.3
2018-Feb-20 13:00N 40°38' W 074°09'0 0.4
2018-Feb-20 12:30N 40°38' W 074°10'0 0.0
2018-Feb-20 12:00N 40°38' W 074°10'0 0.0
2018-Feb-20 11:30N 40°38' W 074°10'0 0.0
2018-Feb-20 10:59N 40°38' W 074°10'0 0.0
2018-Feb-20 10:28N 40°38' W 074°10'0 0.0
2018-Feb-20 09:59N 40°38' W 074°10'0 0.0
2018-Feb-20 09:30N 40°38' W 074°10'0 0.0
2018-Feb-20 09:00N 40°38' W 074°10'0 0.0
2018-Feb-20 08:30N 40°38' W 074°10'0 0.0
2018-Feb-20 07:57N 40°38' W 074°10'0 0.0
2018-Feb-20 07:30N 40°38' W 074°10'0 0.0
2018-Feb-20 07:00N 40°38' W 074°10'0 0.0
2018-Feb-20 06:29N 40°38' W 074°10'0 0.0
2018-Feb-20 06:00N 40°38' W 074°10'0 0.0
2018-Feb-20 05:30N 40°38' W 074°10'0 0.0
2018-Feb-20 05:00N 40°38' W 074°10'0 0.0
2018-Feb-20 04:30N 40°38' W 074°10'0 0.0
2018-Feb-20 04:00N 40°38' W 074°10'0 0.0
2018-Feb-20 03:29N 40°38' W 074°10'0 0.0
2018-Feb-20 03:00N 40°38' W 074°10'0 0.0
2018-Feb-20 02:30N 40°38' W 074°10'0 0.0
2018-Feb-20 02:00N 40°38' W 074°10'0 0.0
2018-Feb-20 01:29N 40°38' W 074°10'0 0.0
2018-Feb-20 01:00N 40°38' W 074°10'0 0.0
2018-Feb-20 00:29N 40°38' W 074°10'0 0.0
2018-Feb-20 00:00N 40°38' W 074°10'0 0.0
2018-Feb-19 23:29N 40°38' W 074°10'0 0.0
2018-Feb-19 23:00N 40°38' W 074°10'0 0.0
2018-Feb-19 22:30N 40°38' W 074°10'0 0.0
2018-Feb-19 22:00N 40°38' W 074°10'0 0.0
2018-Feb-19 21:30N 40°38' W 074°10'0 0.0
2018-Feb-19 21:00N 40°38' W 074°10'0 0.0
2018-Feb-19 20:30N 40°38' W 074°10'0 0.0
2018-Feb-19 20:00N 40°38' W 074°10'0 0.0
2018-Feb-19 19:30N 40°38' W 074°10'0 0.0
2018-Feb-19 19:00N 40°38' W 074°10'0 0.0
2018-Feb-19 18:30N 40°38' W 074°10'0 0.0
2018-Feb-19 18:00N 40°38' W 074°10'0 0.0
2018-Feb-19 17:29N 40°38' W 074°10'0 0.0
2018-Feb-19 17:00N 40°38' W 074°10'0 0.0
2018-Feb-19 16:30N 40°38' W 074°10'0 0.0
2018-Feb-19 16:00N 40°38' W 074°10'0 0.0
2018-Feb-19 15:30N 40°38' W 074°10'0 0.0
2018-Feb-19 15:00N 40°38' W 074°10'0 0.0
2018-Feb-19 14:30N 40°38' W 074°10'0 0.0
2018-Feb-19 14:00N 40°38' W 074°10'0 0.0
2018-Feb-19 13:30N 40°38' W 074°10'0 0.0
2018-Feb-19 13:00N 40°38' W 074°10'0 0.0
2018-Feb-19 12:30N 40°38' W 074°10'0 0.0
2018-Feb-19 12:00N 40°38' W 074°10'0 0.0
2018-Feb-19 11:30N 40°38' W 074°10'0 0.0
2018-Feb-19 11:00N 40°38' W 074°10'0 0.0
2018-Feb-19 10:30N 40°38' W 074°10'0 0.0
2018-Feb-19 10:00N 40°38' W 074°10'0 0.0
2018-Feb-19 09:30N 40°38' W 074°10'0 0.0
2018-Feb-19 09:00N 40°38' W 074°10'0 0.0
2018-Feb-19 08:30N 40°38' W 074°10'0 0.0
2018-Feb-19 08:00N 40°38' W 074°10'0 0.0
2018-Feb-19 07:30N 40°38' W 074°10'0 0.0
2018-Feb-19 06:59N 40°38' W 074°10'0 0.0
2018-Feb-19 06:29N 40°38' W 074°10'0 0.0
2018-Feb-19 06:00N 40°38' W 074°10'0 0.0
2018-Feb-19 05:30N 40°38' W 074°10'0 0.0
2018-Feb-19 04:59N 40°38' W 074°10'0 0.0
2018-Feb-19 04:30N 40°38' W 074°10'0 0.0
2018-Feb-19 04:00N 40°38' W 074°10'0 0.0
2018-Feb-19 03:30N 40°38' W 074°10'0 0.0
2018-Feb-19 03:00N 40°38' W 074°10'0 0.0
2018-Feb-19 02:30N 40°38' W 074°10'0 0.0
2018-Feb-19 02:00N 40°38' W 074°10'0 0.0
2018-Feb-19 01:29N 40°38' W 074°10'0 0.0
2018-Feb-19 01:00N 40°38' W 074°10'0 0.0
2018-Feb-19 00:30N 40°38' W 074°10'0 0.0
2018-Feb-19 00:00N 40°38' W 074°10'0 0.0
2018-Feb-18 23:30N 40°38' W 074°10'0 0.0
2018-Feb-18 23:00N 40°38' W 074°10'0 0.0
2018-Feb-18 22:30N 40°38' W 074°10'0 0.0
2018-Feb-18 22:00N 40°38' W 074°10'0 0.0
2018-Feb-18 21:30N 40°38' W 074°10'0 0.0
2018-Feb-18 21:00N 40°38' W 074°10'0 0.0
2018-Feb-18 20:30N 40°38' W 074°10'0 0.0
2018-Feb-18 19:59N 40°38' W 074°10'0 0.0
2018-Feb-18 19:30N 40°38' W 074°10'0 0.0
2018-Feb-18 19:00N 40°38' W 074°10'0 0.0
2018-Feb-18 18:29N 40°38' W 074°10'0 0.0
2018-Feb-18 18:00N 40°38' W 074°10'0 0.0
2018-Feb-18 17:30N 40°38' W 074°10'0 0.0
2018-Feb-18 17:00N 40°38' W 074°10'0 0.0
2018-Feb-18 16:30N 40°38' W 074°10'0 0.0
2018-Feb-18 16:00N 40°38' W 074°10'0 0.0
2018-Feb-18 15:30N 40°38' W 074°10'0 0.0
2018-Feb-18 15:00N 40°38' W 074°10'0 0.0
2018-Feb-18 14:30N 40°38' W 074°10'0 0.0
2018-Feb-18 13:59N 40°38' W 074°10'0 0.0
2018-Feb-18 13:30N 40°38' W 074°10'0 0.0
2018-Feb-18 13:00N 40°38' W 074°10'0 0.0
2018-Feb-18 12:30N 40°38' W 074°10'0 0.0
2018-Feb-18 12:00N 40°38' W 074°10'0 0.0
2018-Feb-18 11:30N 40°38' W 074°10'0 0.0
2018-Feb-18 11:00N 40°38' W 074°10'0 0.0
2018-Feb-18 10:29N 40°38' W 074°10'0 0.0
2018-Feb-18 10:00N 40°38' W 074°10'0 0.0
2018-Feb-18 09:30N 40°38' W 074°10'0 0.0
2018-Feb-18 09:00N 40°38' W 074°10'0 0.0
2018-Feb-18 08:30N 40°38' W 074°10'0 0.0
2018-Feb-18 08:00N 40°38' W 074°10'0 0.0
2018-Feb-18 07:30N 40°38' W 074°10'0 0.0
2018-Feb-18 07:00N 40°38' W 074°10'0 0.0
2018-Feb-18 06:30N 40°38' W 074°10'0 0.0
2018-Feb-18 06:00N 40°38' W 074°10'0 0.0
2018-Feb-18 05:30N 40°38' W 074°10'0 0.0
2018-Feb-18 05:00N 40°38' W 074°10'0 0.0
2018-Feb-18 04:30N 40°38' W 074°10'0 0.0
2018-Feb-18 04:00N 40°38' W 074°10'0 0.0
2018-Feb-18 03:30N 40°38' W 074°10'0 0.0
2018-Feb-18 02:59N 40°38' W 074°10'0 0.0
2018-Feb-18 02:30N 40°38' W 074°10'0 0.0
2018-Feb-18 02:00N 40°38' W 074°10'0 0.0
2018-Feb-18 01:30N 40°38' W 074°10'0 0.0
2018-Feb-18 01:00N 40°38' W 074°10'0 0.0
2018-Feb-18 00:30N 40°38' W 074°10'0 0.0
2018-Feb-18 00:00N 40°38' W 074°10'0 0.0
2018-Feb-17 23:29N 40°38' W 074°10'0 0.0
2018-Feb-17 23:00N 40°38' W 074°10'0 0.0
2018-Feb-17 22:30N 40°38' W 074°10'0 0.0
2018-Feb-17 22:00N 40°38' W 074°10'0 0.0
2018-Feb-17 21:30N 40°38' W 074°10'0 0.0
2018-Feb-17 21:00N 40°38' W 074°10'0 0.0
2018-Feb-17 20:30N 40°38' W 074°10'0 0.0
2018-Feb-17 20:00N 40°38' W 074°10'0 0.0
2018-Feb-17 19:30N 40°38' W 074°10'0 0.0
2018-Feb-17 19:00N 40°38' W 074°10'0 0.0
2018-Feb-17 18:30N 40°38' W 074°10'0 0.0
2018-Feb-17 18:00N 40°38' W 074°10'0 0.0
2018-Feb-17 17:30N 40°38' W 074°10'0 0.0
2018-Feb-17 17:00N 40°38' W 074°10'0 0.0
2018-Feb-17 16:30N 40°38' W 074°10'0 0.0
2018-Feb-17 16:00N 40°38' W 074°10'0 0.0
2018-Feb-17 15:30N 40°38' W 074°10'0 0.0
2018-Feb-17 15:00N 40°38' W 074°10'0 0.0
2018-Feb-17 14:30N 40°38' W 074°10'0 0.0
2018-Feb-17 14:00N 40°38' W 074°10'0 0.0
2018-Feb-17 13:30N 40°38' W 074°10'0 0.0
2018-Feb-17 13:00N 40°38' W 074°10'0 0.0
2018-Feb-17 12:30N 40°38' W 074°10'0 0.0
2018-Feb-17 12:00N 40°38' W 074°10'0 0.0
2018-Feb-17 11:30N 40°38' W 074°10'0 0.0
2018-Feb-17 11:00N 40°38' W 074°10'0 0.0
2018-Feb-17 10:30N 40°38' W 074°10'0 0.0
2018-Feb-17 10:00N 40°38' W 074°10'0 0.0
2018-Feb-17 09:30N 40°38' W 074°10'0 0.0
2018-Feb-17 09:00N 40°38' W 074°10'0 0.0
2018-Feb-17 08:30N 40°38' W 074°10'0 0.0
2018-Feb-17 08:00N 40°38' W 074°10'0 0.0
2018-Feb-17 07:30N 40°38' W 074°10'0 0.0
2018-Feb-17 06:59N 40°38' W 074°10'0 0.0
2018-Feb-17 06:30N 40°38' W 074°10'0 0.0
2018-Feb-17 06:00N 40°38' W 074°10'0 0.0
2018-Feb-17 05:30N 40°38' W 074°10'0 0.0
2018-Feb-17 05:00N 40°38' W 074°10'0 0.0
2018-Feb-17 04:30N 40°38' W 074°10'0 0.0
2018-Feb-17 03:59N 40°38' W 074°10'0 0.0
2018-Feb-17 03:30N 40°38' W 074°10'0 0.0
2018-Feb-17 03:00N 40°38' W 074°10'0 0.0
2018-Feb-17 02:30N 40°38' W 074°10'0 0.0
2018-Feb-17 02:00N 40°38' W 074°10'0 0.0
2018-Feb-17 01:30N 40°38' W 074°10'0 0.0
2018-Feb-17 01:00N 40°38' W 074°10'0 0.0
2018-Feb-17 00:30N 40°38' W 074°10'0 0.0
2018-Feb-17 00:00N 40°38' W 074°10'0 0.0
2018-Feb-16 23:30N 40°38' W 074°10'0 0.0
2018-Feb-16 22:58N 40°38' W 074°10'0 0.0
2018-Feb-16 21:59N 40°38' W 074°10'0 0.0
2018-Feb-16 21:30N 40°38' W 074°10'0 0.0
2018-Feb-16 20:59N 40°38' W 074°10'0 0.0
2018-Feb-16 20:30N 40°38' W 074°10'0 0.0
2018-Feb-16 20:00N 40°38' W 074°10'0 0.0
2018-Feb-16 19:29N 40°38' W 074°10'0 0.0
2018-Feb-16 19:00N 40°38' W 074°10'2 2.0
2018-Feb-16 17:49N 40°39' W 074°07'0 0.0
2018-Feb-16 17:28N 40°39' W 074°07'0 0.0
2018-Feb-16 17:00N 40°39' W 074°07'0 0.0
2018-Feb-16 16:23N 40°39' W 074°07'2 4.6
2018-Feb-16 16:00N 40°38' W 074°09'1 1.6
2018-Feb-16 15:30N 40°39' W 074°08'1 1.8
2018-Feb-16 15:00N 40°39' W 074°07'1 1.4
2018-Feb-16 14:30N 40°39' W 074°07'1 2.9
2018-Feb-16 14:00N 40°40' W 074°09'1 2.2
2018-Feb-16 13:30N 40°38' W 074°09'1 0.0
2018-Feb-14 16:43N 40°40' W 074°09'0 0.0
2018-Feb-14 16:30N 40°40' W 074°09'0 0.0
2018-Feb-14 16:01N 40°40' W 074°09'0 0.1
2018-Feb-14 15:30N 40°40' W 074°09'0 0.7
2018-Feb-14 15:00N 40°40' W 074°09'2 4.7
2018-Feb-14 14:31N 40°39' W 074°06'3 6.3
2018-Feb-14 14:01N 40°41' W 074°03'4 7.4
2018-Feb-14 13:30N 40°43' W 073°59'1 2.8
2018-Feb-14 13:00N 40°44' W 073°58'0 0.2
2018-Feb-14 12:30N 40°44' W 073°58'0 0.1
2018-Feb-14 12:01N 40°44' W 073°58'2 3.0
2018-Feb-14 11:30N 40°42' W 073°59'3 5.7
2018-Feb-14 11:00N 40°41' W 074°02'4 7.4
2018-Feb-14 10:30N 40°39' W 074°06'3 6.4
2018-Feb-14 10:00N 40°39' W 074°10'1 2.1
2018-Feb-14 09:30N 40°39' W 074°11'2 0.1
2018-Feb-13 18:54N 40°39' W 074°09'1 2.2
2018-Feb-13 18:30N 40°40' W 074°09'1 2.6
2018-Feb-13 18:00N 40°39' W 074°09'2 4.6
2018-Feb-13 17:30N 40°39' W 074°06'2 4.1
2018-Feb-13 17:00N 40°41' W 074°04'0 0.3
2018-Feb-13 16:30N 40°41' W 074°04'0 0.2
2018-Feb-13 16:00N 40°41' W 074°04'2 4.9
2018-Feb-13 15:30N 40°40' W 074°01'0 0.1
2018-Feb-13 15:00N 40°40' W 074°01'2 3.8
2018-Feb-13 14:30N 40°42' W 074°00'0 0.1
2018-Feb-13 14:00N 40°42' W 074°00'0 0.6
2018-Feb-13 13:30N 40°42' W 074°00'2 4.5
2018-Feb-13 13:00N 40°44' W 073°58'1 1.3
2018-Feb-13 12:30N 40°44' W 073°58'4 7.0
2018-Feb-13 12:00N 40°41' W 074°01'3 0.2
2018-Feb-12 20:48N 40°43' W 073°58'0 0.4
2018-Feb-12 20:30N 40°43' W 073°58'4 7.7
2018-Feb-12 20:00N 40°41' W 074°02'2 3.3
2018-Feb-12 19:30N 40°41' W 074°04'0 0.6
2018-Feb-12 19:00N 40°40' W 074°04'2 4.2
2018-Feb-12 18:30N 40°39' W 074°02'0 0.5
2018-Feb-12 18:00N 40°39' W 074°02'0 0.0
2018-Feb-12 17:30N 40°39' W 074°02'2 3.7
2018-Feb-12 17:00N 40°40' W 074°03'1 1.8
2018-Feb-12 16:30N 40°41' W 074°04'0 0.3
2018-Feb-12 16:00N 40°41' W 074°04'2 4.1
2018-Feb-12 15:30N 40°39' W 074°02'1 1.1
2018-Feb-12 15:00N 40°39' W 074°02'0 0.0
2018-Feb-12 14:30N 40°39' W 074°02'1 2.4
2018-Feb-12 14:00N 40°40' W 074°03'2 3.2
2018-Feb-12 13:30N 40°41' W 074°04'0 0.0
2018-Feb-12 13:00N 40°41' W 074°04'0 0.0
2018-Feb-12 12:30N 40°41' W 074°04'  

Dump ship's entire track history